DLH4T EGLL-EDDF
Flight info
| Callsign | DLH4T |
|---|---|
| Flight time | 1h 8m |
| Altitude | 35000 |
| Route | DET L6 DVR UL9 KONAN UL607 SPI T180 NIVNU T847 IMCOM IMCOM1A |
| Aircraft | A20N/M-SDE2E3FGHIRWXY/LB1 |
Departure
| Time | 2026-04-15 15:23 |
|---|---|
| Airport | London Heathrow Airport (EGLL) |
Arrival
| Time | 2026-04-15 16:32 |
|---|---|
| Airport | Frankfurt Main Airport (EDDF) |
| Time | Latitude | Longitude | Altitude | Speed | Heading |
|---|---|---|---|---|---|
| 2026-04-15 14:52 | 51.46860 | -0.46325 | 89 ft | 0 kts | 55° |
| 2026-04-15 15:14 | 51.46851 | -0.46346 | 89 ft | 2 kts | 56° |
| 2026-04-15 15:14 | 51.46842 | -0.46368 | 89 ft | 2 kts | 58° |
| 2026-04-15 15:15 | 51.46834 | -0.46391 | 87 ft | 2 kts | 60° |
| 2026-04-15 15:15 | 51.46826 | -0.46414 | 89 ft | 2 kts | 65° |
| 2026-04-15 15:15 | 51.46820 | -0.46439 | 88 ft | 2 kts | 76° |
| 2026-04-15 15:15 | 51.46819 | -0.46465 | 88 ft | 2 kts | 116° |
| 2026-04-15 15:16 | 51.46827 | -0.46481 | 88 ft | 1 kts | 146° |
| 2026-04-15 15:16 | 51.46828 | -0.46483 | 88 ft | 0 kts | 147° |
| 2026-04-15 15:18 | 51.46823 | -0.46477 | 88 ft | 3 kts | 147° |
| 2026-04-15 15:19 | 51.46785 | -0.46439 | 89 ft | 10 kts | 150° |
| 2026-04-15 15:19 | 51.46706 | -0.46417 | 89 ft | 13 kts | 175° |
| 2026-04-15 15:19 | 51.46659 | -0.46286 | 89 ft | 19 kts | 89° |
| 2026-04-15 15:19 | 51.46661 | -0.46025 | 82 ft | 27 kts | 88° |
| 2026-04-15 15:20 | 51.46663 | -0.45732 | 80 ft | 23 kts | 88° |
| 2026-04-15 15:20 | 51.46663 | -0.45443 | 82 ft | 27 kts | 88° |
| 2026-04-15 15:20 | 51.46664 | -0.45160 | 87 ft | 25 kts | 91° |
| 2026-04-15 15:20 | 51.46662 | -0.44952 | 89 ft | 14 kts | 90° |
| 2026-04-15 15:21 | 51.46666 | -0.44752 | 89 ft | 22 kts | 88° |
| 2026-04-15 15:21 | 51.46665 | -0.44468 | 86 ft | 29 kts | 89° |
| 2026-04-15 15:21 | 51.46664 | -0.44132 | 82 ft | 23 kts | 97° |
| 2026-04-15 15:21 | 51.46579 | -0.44055 | 87 ft | 15 kts | 179° |
| 2026-04-15 15:22 | 51.46494 | -0.44118 | 82 ft | 13 kts | 255° |
| 2026-04-15 15:22 | 51.46493 | -0.44128 | 84 ft | 0 kts | 260° |
| 2026-04-15 15:22 | 51.46493 | -0.44129 | 84 ft | 1 kts | 260° |
| 2026-04-15 15:22 | 51.46491 | -0.44460 | 86 ft | 61 kts | 271° |
| 2026-04-15 15:23 | 51.46486 | -0.45459 | 84 ft | 114 kts | 271° |
| 2026-04-15 15:23 | 51.46502 | -0.46922 | 287 ft | 137 kts | 264° |
| 2026-04-15 15:23 | 51.46530 | -0.48519 | 715 ft | 164 kts | 264° |
| 2026-04-15 15:23 | 51.46548 | -0.50519 | 1367 ft | 193 kts | 265° |
| 2026-04-15 15:24 | 51.46438 | -0.52793 | 2149 ft | 206 kts | 246° |
| 2026-04-15 15:24 | 51.45618 | -0.54690 | 3053 ft | 220 kts | 217° |
| 2026-04-15 15:24 | 51.44177 | -0.55603 | 4136 ft | 232 kts | 188° |
| 2026-04-15 15:24 | 51.42507 | -0.55246 | 4787 ft | 271 kts | 165° |
| 2026-04-15 15:25 | 51.40900 | -0.53584 | 4934 ft | 273 kts | 139° |
| 2026-04-15 15:25 | 51.39800 | -0.51182 | 5090 ft | 272 kts | 130° |
| 2026-04-15 15:25 | 51.38741 | -0.48654 | 5229 ft | 272 kts | 133° |
| 2026-04-15 15:25 | 51.37585 | -0.46272 | 5369 ft | 269 kts | 137° |
| 2026-04-15 15:26 | 51.36336 | -0.44046 | 5499 ft | 268 kts | 140° |
| 2026-04-15 15:26 | 51.35037 | -0.41927 | 5630 ft | 267 kts | 142° |
| 2026-04-15 15:26 | 51.33713 | -0.39851 | 5751 ft | 267 kts | 143° |
| 2026-04-15 15:26 | 51.32827 | -0.38481 | 5830 ft | 267 kts | 143° |
| 2026-04-15 15:27 | 51.31557 | -0.36435 | 5944 ft | 273 kts | 135° |
| 2026-04-15 15:27 | 51.30729 | -0.33631 | 6014 ft | 290 kts | 108° |
| 2026-04-15 15:27 | 51.30714 | -0.30356 | 6023 ft | 301 kts | 84° |
| 2026-04-15 15:27 | 51.31119 | -0.27099 | 6015 ft | 302 kts | 82° |
| 2026-04-15 15:28 | 51.31465 | -0.23815 | 6020 ft | 300 kts | 87° |
| 2026-04-15 15:28 | 51.31649 | -0.20481 | 6024 ft | 298 kts | 92° |
| 2026-04-15 15:28 | 51.31702 | -0.17175 | 6034 ft | 298 kts | 95° |
| 2026-04-15 15:28 | 51.31683 | -0.13863 | 6029 ft | 296 kts | 96° |
| 2026-04-15 15:29 | 51.31637 | -0.10573 | 6028 ft | 297 kts | 96° |
| 2026-04-15 15:29 | 51.31584 | -0.07291 | 6031 ft | 291 kts | 96° |
| 2026-04-15 15:29 | 51.31531 | -0.04090 | 6027 ft | 295 kts | 96° |
| 2026-04-15 15:29 | 51.31475 | -0.00786 | 6024 ft | 296 kts | 96° |
| 2026-04-15 15:30 | 51.31425 | 0.02498 | 6023 ft | 296 kts | 97° |
| 2026-04-15 15:30 | 51.31374 | 0.05779 | 6029 ft | 296 kts | 97° |
| 2026-04-15 15:30 | 51.31321 | 0.09080 | 6024 ft | 297 kts | 96° |
| 2026-04-15 15:30 | 51.31267 | 0.12376 | 6026 ft | 295 kts | 96° |
| 2026-04-15 15:31 | 51.31216 | 0.15653 | 6029 ft | 294 kts | 96° |
| 2026-04-15 15:31 | 51.31161 | 0.18884 | 6030 ft | 295 kts | 96° |
| 2026-04-15 15:31 | 51.31103 | 0.22172 | 6028 ft | 295 kts | 97° |
| 2026-04-15 15:31 | 51.31045 | 0.25472 | 6025 ft | 296 kts | 97° |
| 2026-04-15 15:32 | 51.30986 | 0.28765 | 5737 ft | 296 kts | 96° |
| 2026-04-15 15:32 | 51.30929 | 0.32043 | 5719 ft | 294 kts | 96° |
| 2026-04-15 15:32 | 51.30871 | 0.35311 | 5713 ft | 294 kts | 96° |
| 2026-04-15 15:32 | 51.30810 | 0.38587 | 5705 ft | 296 kts | 96° |
| 2026-04-15 15:33 | 51.30748 | 0.41873 | 5699 ft | 296 kts | 96° |
| 2026-04-15 15:33 | 51.30687 | 0.45162 | 5700 ft | 296 kts | 97° |
| 2026-04-15 15:33 | 51.30596 | 0.48433 | 5704 ft | 293 kts | 104° |
| 2026-04-15 15:33 | 51.30135 | 0.51597 | 5945 ft | 293 kts | 110° |
| 2026-04-15 15:34 | 51.29626 | 0.54760 | 6774 ft | 294 kts | 110° |
| 2026-04-15 15:34 | 51.29121 | 0.57890 | 7836 ft | 296 kts | 111° |
| 2026-04-15 15:34 | 51.28603 | 0.61098 | 8811 ft | 301 kts | 111° |
| 2026-04-15 15:34 | 51.28073 | 0.64364 | 9788 ft | 305 kts | 111° |
| 2026-04-15 15:35 | 51.27528 | 0.67716 | 10397 ft | 323 kts | 111° |
| 2026-04-15 15:35 | 51.26937 | 0.71303 | 10750 ft | 346 kts | 110° |
| 2026-04-15 15:35 | 51.26312 | 0.75127 | 11313 ft | 359 kts | 110° |
| 2026-04-15 15:35 | 51.25683 | 0.79029 | 12204 ft | 363 kts | 110° |
| 2026-04-15 15:36 | 51.25047 | 0.82966 | 13094 ft | 367 kts | 110° |
| 2026-04-15 15:36 | 51.24411 | 0.86878 | 13907 ft | 372 kts | 110° |
| 2026-04-15 15:36 | 51.23754 | 0.90895 | 14826 ft | 374 kts | 110° |
| 2026-04-15 15:36 | 51.23093 | 0.94932 | 15655 ft | 376 kts | 111° |
| 2026-04-15 15:37 | 51.22426 | 0.98983 | 16443 ft | 378 kts | 111° |
| 2026-04-15 15:37 | 51.21755 | 1.03045 | 17207 ft | 381 kts | 111° |
| 2026-04-15 15:37 | 51.21074 | 1.07154 | 17959 ft | 384 kts | 111° |
| 2026-04-15 15:37 | 51.20387 | 1.11295 | 18674 ft | 387 kts | 111° |
| 2026-04-15 15:38 | 51.19694 | 1.15460 | 19303 ft | 390 kts | 111° |
| 2026-04-15 15:38 | 51.18996 | 1.19645 | 19949 ft | 393 kts | 111° |
| 2026-04-15 15:38 | 51.18288 | 1.23878 | 20550 ft | 396 kts | 112° |
| 2026-04-15 15:38 | 51.17573 | 1.28138 | 21179 ft | 400 kts | 112° |
| 2026-04-15 15:39 | 51.16860 | 1.32382 | 21759 ft | 403 kts | 112° |
| 2026-04-15 15:39 | 51.16252 | 1.36795 | 22354 ft | 413 kts | 105° |
| 2026-04-15 15:39 | 51.15987 | 1.41357 | 22941 ft | 420 kts | 101° |
| 2026-04-15 15:39 | 51.15778 | 1.46027 | 23519 ft | 424 kts | 101° |
| 2026-04-15 15:40 | 51.15561 | 1.50733 | 24016 ft | 427 kts | 101° |
| 2026-04-15 15:40 | 51.15334 | 1.55487 | 24500 ft | 430 kts | 101° |
| 2026-04-15 15:40 | 51.15102 | 1.60260 | 24961 ft | 434 kts | 101° |
| 2026-04-15 15:40 | 51.14865 | 1.65074 | 25425 ft | 437 kts | 101° |
| 2026-04-15 15:41 | 51.14628 | 1.69847 | 25905 ft | 440 kts | 101° |
| 2026-04-15 15:41 | 51.14383 | 1.74740 | 26342 ft | 444 kts | 101° |
| 2026-04-15 15:41 | 51.14135 | 1.79652 | 26788 ft | 447 kts | 101° |
| 2026-04-15 15:41 | 51.13882 | 1.84612 | 27213 ft | 450 kts | 101° |
| 2026-04-15 15:42 | 51.13626 | 1.89602 | 27625 ft | 453 kts | 101° |
| 2026-04-15 15:42 | 51.13366 | 1.94619 | 28019 ft | 456 kts | 101° |
| 2026-04-15 15:42 | 51.13102 | 1.99675 | 28403 ft | 459 kts | 101° |
| 2026-04-15 15:42 | 51.12833 | 2.04766 | 28773 ft | 462 kts | 101° |
| 2026-04-15 15:43 | 51.12562 | 2.09870 | 29130 ft | 465 kts | 101° |
| 2026-04-15 15:43 | 51.12284 | 2.15033 | 29480 ft | 468 kts | 101° |
| 2026-04-15 15:43 | 51.12005 | 2.20208 | 29818 ft | 471 kts | 101° |
| 2026-04-15 15:43 | 51.11721 | 2.25404 | 30161 ft | 474 kts | 101° |
| 2026-04-15 15:44 | 51.11433 | 2.30653 | 30480 ft | 476 kts | 101° |
| 2026-04-15 15:44 | 51.11145 | 2.35854 | 30791 ft | 478 kts | 101° |
| 2026-04-15 15:44 | 51.10850 | 2.41133 | 31110 ft | 480 kts | 101° |
| 2026-04-15 15:44 | 51.10551 | 2.46444 | 31474 ft | 481 kts | 101° |
| 2026-04-15 15:45 | 51.10251 | 2.51740 | 31887 ft | 480 kts | 101° |
| 2026-04-15 15:45 | 51.09949 | 2.57025 | 32304 ft | 479 kts | 101° |
| 2026-04-15 15:45 | 51.09632 | 2.62288 | 32709 ft | 477 kts | 103° |
| 2026-04-15 15:45 | 51.09060 | 2.67387 | 33096 ft | 470 kts | 110° |
| 2026-04-15 15:46 | 51.08193 | 2.72316 | 33475 ft | 466 kts | 113° |
| 2026-04-15 15:46 | 51.07287 | 2.77265 | 33856 ft | 466 kts | 113° |
| 2026-04-15 15:46 | 51.06387 | 2.82219 | 34215 ft | 465 kts | 112° |
| 2026-04-15 15:46 | 51.05490 | 2.87160 | 34508 ft | 465 kts | 112° |
| 2026-04-15 15:47 | 51.04591 | 2.92099 | 34630 ft | 464 kts | 112° |
| 2026-04-15 15:47 | 51.03690 | 2.97032 | 34751 ft | 463 kts | 112° |
| 2026-04-15 15:47 | 51.02788 | 3.01956 | 34863 ft | 463 kts | 112° |
| 2026-04-15 15:47 | 51.01896 | 3.06806 | 34976 ft | 463 kts | 112° |
| 2026-04-15 15:48 | 51.00988 | 3.11730 | 35084 ft | 463 kts | 112° |
| 2026-04-15 15:48 | 51.00081 | 3.16637 | 35119 ft | 463 kts | 113° |
| 2026-04-15 15:48 | 50.98256 | 3.26477 | 35100 ft | 463 kts | 113° |
| 2026-04-15 15:49 | 50.96437 | 3.36226 | 35253 ft | 463 kts | 113° |
| 2026-04-15 15:49 | 50.95518 | 3.41133 | 35384 ft | 464 kts | 113° |
| 2026-04-15 15:49 | 50.94598 | 3.46037 | 35388 ft | 462 kts | 113° |
| 2026-04-15 15:50 | 50.93687 | 3.50889 | 35260 ft | 455 kts | 113° |
| 2026-04-15 15:50 | 50.93092 | 3.54062 | 35187 ft | 447 kts | 113° |
| 2026-04-15 15:50 | 50.92223 | 3.58691 | 35118 ft | 429 kts | 113° |
| 2026-04-15 15:50 | 50.91394 | 3.63111 | 35116 ft | 406 kts | 114° |
| 2026-04-15 15:51 | 50.89756 | 3.71624 | 35124 ft | 405 kts | 114° |
| 2026-04-15 15:51 | 50.88107 | 3.80091 | 35126 ft | 406 kts | 114° |
| 2026-04-15 15:52 | 50.86445 | 3.88645 | 35129 ft | 406 kts | 114° |
| 2026-04-15 15:52 | 50.84763 | 3.97273 | 35219 ft | 414 kts | 114° |
| 2026-04-15 15:53 | 50.83028 | 4.06121 | 35326 ft | 427 kts | 114° |
| 2026-04-15 15:53 | 50.81242 | 4.15205 | 35424 ft | 438 kts | 113° |
| 2026-04-15 15:54 | 50.79413 | 4.24474 | 35524 ft | 450 kts | 113° |
| 2026-04-15 15:54 | 50.77515 | 4.34041 | 35628 ft | 461 kts | 113° |
| 2026-04-15 15:55 | 50.75565 | 4.43825 | 35853 ft | 468 kts | 112° |
| 2026-04-15 15:55 | 50.74596 | 4.48680 | 36110 ft | 468 kts | 112° |
| 2026-04-15 15:55 | 50.73621 | 4.53548 | 36380 ft | 467 kts | 112° |
| 2026-04-15 15:56 | 50.72639 | 4.58434 | 36641 ft | 467 kts | 112° |
| 2026-04-15 15:56 | 50.71662 | 4.63320 | 36898 ft | 466 kts | 112° |
| 2026-04-15 15:56 | 50.70712 | 4.68216 | 37079 ft | 467 kts | 112° |
| 2026-04-15 15:56 | 50.69771 | 4.73113 | 37132 ft | 466 kts | 111° |
| 2026-04-15 15:57 | 50.67897 | 4.82803 | 37135 ft | 465 kts | 111° |
| 2026-04-15 15:57 | 50.65993 | 4.92547 | 37146 ft | 465 kts | 112° |
| 2026-04-15 15:58 | 50.64010 | 5.02272 | 37148 ft | 465 kts | 112° |
| 2026-04-15 15:58 | 50.62010 | 5.11918 | 37153 ft | 465 kts | 112° |
| 2026-04-15 15:59 | 50.60000 | 5.21616 | 37155 ft | 465 kts | 112° |
| 2026-04-15 15:59 | 50.57982 | 5.31326 | 37156 ft | 466 kts | 112° |
| 2026-04-15 16:00 | 50.55970 | 5.40960 | 37155 ft | 466 kts | 112° |
| 2026-04-15 16:00 | 50.53938 | 5.50643 | 37157 ft | 466 kts | 112° |
| 2026-04-15 16:01 | 50.51897 | 5.60325 | 37153 ft | 466 kts | 112° |
| 2026-04-15 16:01 | 50.49957 | 5.70075 | 37156 ft | 468 kts | 109° |
| 2026-04-15 16:02 | 50.48166 | 5.79914 | 36973 ft | 469 kts | 109° |
| 2026-04-15 16:02 | 50.47260 | 5.84828 | 36712 ft | 469 kts | 109° |
| 2026-04-15 16:02 | 50.46354 | 5.89680 | 36388 ft | 470 kts | 109° |
| 2026-04-15 16:03 | 50.45421 | 5.94634 | 35710 ft | 474 kts | 109° |
| 2026-04-15 16:03 | 50.44472 | 5.99635 | 34859 ft | 479 kts | 109° |
| 2026-04-15 16:03 | 50.43517 | 6.04662 | 34085 ft | 481 kts | 109° |
| 2026-04-15 16:03 | 50.42571 | 6.09630 | 33318 ft | 481 kts | 109° |
| 2026-04-15 16:04 | 50.41611 | 6.14663 | 32543 ft | 481 kts | 109° |
| 2026-04-15 16:04 | 50.40646 | 6.19706 | 31730 ft | 481 kts | 109° |
| 2026-04-15 16:04 | 50.39679 | 6.24748 | 30909 ft | 482 kts | 109° |
| 2026-04-15 16:04 | 50.38717 | 6.29755 | 30394 ft | 476 kts | 109° |
| 2026-04-15 16:05 | 50.37764 | 6.34704 | 29771 ft | 471 kts | 108° |
| 2026-04-15 16:05 | 50.36849 | 6.39557 | 29208 ft | 465 kts | 106° |
| 2026-04-15 16:05 | 50.36232 | 6.44437 | 28642 ft | 460 kts | 98° |
| 2026-04-15 16:05 | 50.35922 | 6.49402 | 28083 ft | 454 kts | 96° |
| 2026-04-15 16:06 | 50.35631 | 6.54303 | 27527 ft | 449 kts | 96° |
| 2026-04-15 16:06 | 50.35325 | 6.59157 | 26982 ft | 444 kts | 96° |
| 2026-04-15 16:06 | 50.35018 | 6.63945 | 26433 ft | 440 kts | 96° |
| 2026-04-15 16:06 | 50.34710 | 6.68703 | 25891 ft | 436 kts | 96° |
| 2026-04-15 16:07 | 50.34409 | 6.73353 | 25356 ft | 432 kts | 96° |
| 2026-04-15 16:07 | 50.34108 | 6.78026 | 24798 ft | 429 kts | 96° |
| 2026-04-15 16:07 | 50.33092 | 6.87128 | 23741 ft | 421 kts | 108° |
| 2026-04-15 16:08 | 50.32069 | 6.91382 | 23183 ft | 415 kts | 116° |
| 2026-04-15 16:08 | 50.30837 | 6.95465 | 22446 ft | 415 kts | 116° |
| 2026-04-15 16:08 | 50.29616 | 6.99546 | 21934 ft | 410 kts | 116° |
| 2026-04-15 16:08 | 50.28417 | 7.03574 | 21442 ft | 406 kts | 116° |
| 2026-04-15 16:09 | 50.27245 | 7.07512 | 20923 ft | 402 kts | 116° |
| 2026-04-15 16:09 | 50.26066 | 7.11468 | 20412 ft | 398 kts | 116° |
| 2026-04-15 16:09 | 50.24899 | 7.15372 | 19909 ft | 395 kts | 116° |
| 2026-04-15 16:09 | 50.23738 | 7.19249 | 19406 ft | 391 kts | 116° |
| 2026-04-15 16:10 | 50.22598 | 7.23045 | 18911 ft | 388 kts | 116° |
| 2026-04-15 16:10 | 50.21453 | 7.26852 | 18398 ft | 386 kts | 116° |
| 2026-04-15 16:10 | 50.20314 | 7.30634 | 17880 ft | 381 kts | 117° |
| 2026-04-15 16:10 | 50.19253 | 7.34421 | 17383 ft | 377 kts | 111° |
| 2026-04-15 16:11 | 50.18351 | 7.38244 | 16911 ft | 373 kts | 111° |
| 2026-04-15 16:11 | 50.17469 | 7.41972 | 16435 ft | 369 kts | 111° |
| 2026-04-15 16:11 | 50.16575 | 7.45731 | 15954 ft | 366 kts | 111° |
| 2026-04-15 16:11 | 50.15690 | 7.49440 | 15498 ft | 363 kts | 111° |
| 2026-04-15 16:12 | 50.14809 | 7.53119 | 15030 ft | 360 kts | 111° |
| 2026-04-15 16:12 | 50.13943 | 7.56727 | 14568 ft | 357 kts | 111° |
| 2026-04-15 16:12 | 50.13073 | 7.60347 | 14102 ft | 355 kts | 111° |
| 2026-04-15 16:12 | 50.12209 | 7.63935 | 13602 ft | 352 kts | 111° |
| 2026-04-15 16:13 | 50.11300 | 7.67469 | 13144 ft | 348 kts | 117° |
| 2026-04-15 16:13 | 50.10120 | 7.70713 | 12804 ft | 340 kts | 125° |
| 2026-04-15 16:13 | 50.08720 | 7.73817 | 12610 ft | 357 kts | 126° |
| 2026-04-15 16:13 | 50.07324 | 7.76945 | 12376 ft | 354 kts | 126° |
| 2026-04-15 16:14 | 50.05931 | 7.80085 | 12128 ft | 351 kts | 126° |
| 2026-04-15 16:14 | 50.04542 | 7.83218 | 11897 ft | 350 kts | 126° |
| 2026-04-15 16:14 | 50.03157 | 7.86331 | 11660 ft | 349 kts | 126° |
| 2026-04-15 16:14 | 50.01776 | 7.89430 | 11421 ft | 348 kts | 126° |
| 2026-04-15 16:15 | 50.00514 | 7.92646 | 11181 ft | 348 kts | 113° |
| 2026-04-15 16:15 | 50.00006 | 7.96315 | 10964 ft | 348 kts | 91° |
| 2026-04-15 16:15 | 50.00392 | 7.99962 | 10824 ft | 348 kts | 71° |
| 2026-04-15 16:15 | 50.01243 | 8.03491 | 10668 ft | 348 kts | 68° |
| 2026-04-15 16:16 | 50.02164 | 8.06984 | 10519 ft | 346 kts | 68° |
| 2026-04-15 16:16 | 50.02804 | 8.09421 | 10427 ft | 336 kts | 68° |
| 2026-04-15 16:16 | 50.03638 | 8.12673 | 10266 ft | 318 kts | 68° |
| 2026-04-15 16:16 | 50.04423 | 8.15810 | 10057 ft | 306 kts | 69° |
| 2026-04-15 16:17 | 50.05178 | 8.18886 | 9713 ft | 302 kts | 69° |
| 2026-04-15 16:17 | 50.05916 | 8.21920 | 9502 ft | 293 kts | 69° |
| 2026-04-15 16:17 | 50.06634 | 8.24885 | 9430 ft | 295 kts | 69° |
| 2026-04-15 16:17 | 50.07340 | 8.27807 | 9364 ft | 295 kts | 69° |
| 2026-04-15 16:18 | 50.08070 | 8.30829 | 9293 ft | 293 kts | 69° |
| 2026-04-15 16:18 | 50.09059 | 8.33583 | 9180 ft | 293 kts | 47° |
| 2026-04-15 16:18 | 50.10667 | 8.35412 | 9058 ft | 291 kts | 21° |
| 2026-04-15 16:18 | 50.12536 | 8.36574 | 9010 ft | 289 kts | 30° |
| 2026-04-15 16:19 | 50.14013 | 8.38698 | 9008 ft | 292 kts | 56° |
| 2026-04-15 16:19 | 50.14759 | 8.41583 | 9010 ft | 291 kts | 82° |
| 2026-04-15 16:19 | 50.14811 | 8.44761 | 8889 ft | 290 kts | 94° |
| 2026-04-15 16:19 | 50.14657 | 8.47908 | 8510 ft | 292 kts | 95° |
| 2026-04-15 16:20 | 50.14520 | 8.51062 | 8133 ft | 290 kts | 94° |
| 2026-04-15 16:20 | 50.14452 | 8.54208 | 7758 ft | 288 kts | 91° |
| 2026-04-15 16:20 | 50.14500 | 8.57285 | 7420 ft | 285 kts | 84° |
| 2026-04-15 16:20 | 50.14859 | 8.60305 | 7100 ft | 282 kts | 75° |
| 2026-04-15 16:21 | 50.15738 | 8.62963 | 6924 ft | 273 kts | 52° |
| 2026-04-15 16:21 | 50.16972 | 8.65254 | 6804 ft | 279 kts | 49° |
| 2026-04-15 16:21 | 50.18137 | 8.67652 | 6745 ft | 275 kts | 69° |
| 2026-04-15 16:21 | 50.18364 | 8.70575 | 6793 ft | 275 kts | 95° |
| 2026-04-15 16:22 | 50.18043 | 8.73497 | 6678 ft | 273 kts | 102° |
| 2026-04-15 16:22 | 50.17673 | 8.76382 | 6279 ft | 275 kts | 102° |
| 2026-04-15 16:22 | 50.17404 | 8.79349 | 5878 ft | 274 kts | 92° |
| 2026-04-15 16:22 | 50.17271 | 8.82248 | 5735 ft | 263 kts | 89° |
| 2026-04-15 16:23 | 50.17710 | 8.84923 | 5612 ft | 251 kts | 59° |
| 2026-04-15 16:23 | 50.18688 | 8.87094 | 5499 ft | 239 kts | 53° |
| 2026-04-15 16:23 | 50.19669 | 8.89160 | 5279 ft | 235 kts | 53° |
| 2026-04-15 16:23 | 50.20637 | 8.91198 | 5100 ft | 230 kts | 53° |
| 2026-04-15 16:24 | 50.21569 | 8.93246 | 5015 ft | 236 kts | 63° |
| 2026-04-15 16:24 | 50.21930 | 8.95700 | 5016 ft | 233 kts | 94° |
| 2026-04-15 16:24 | 50.21404 | 8.98081 | 5014 ft | 235 kts | 126° |
| 2026-04-15 16:24 | 50.20147 | 8.99677 | 5017 ft | 235 kts | 158° |
| 2026-04-15 16:25 | 50.18554 | 9.00006 | 5014 ft | 237 kts | 189° |
| 2026-04-15 16:25 | 50.17061 | 8.98973 | 5016 ft | 237 kts | 220° |
| 2026-04-15 16:25 | 50.15840 | 8.97221 | 5012 ft | 238 kts | 224° |
| 2026-04-15 16:25 | 50.14646 | 8.95449 | 5010 ft | 237 kts | 224° |
| 2026-04-15 16:26 | 50.13464 | 8.93689 | 5012 ft | 237 kts | 224° |
| 2026-04-15 16:26 | 50.12267 | 8.91910 | 5006 ft | 238 kts | 224° |
| 2026-04-15 16:26 | 50.11244 | 8.89958 | 5020 ft | 237 kts | 245° |
| 2026-04-15 16:26 | 50.10715 | 8.87516 | 5003 ft | 238 kts | 253° |
| 2026-04-15 16:27 | 50.10242 | 8.85052 | 4850 ft | 236 kts | 253° |
| 2026-04-15 16:27 | 50.09781 | 8.82663 | 4394 ft | 231 kts | 253° |
| 2026-04-15 16:27 | 50.09319 | 8.80255 | 3745 ft | 232 kts | 253° |
| 2026-04-15 16:27 | 50.08860 | 8.77855 | 3148 ft | 230 kts | 253° |
| 2026-04-15 16:28 | 50.08405 | 8.75463 | 2555 ft | 228 kts | 253° |
| 2026-04-15 16:28 | 50.07958 | 8.73104 | 1977 ft | 226 kts | 253° |
| 2026-04-15 16:28 | 50.07510 | 8.70831 | 1669 ft | 203 kts | 251° |
| 2026-04-15 16:28 | 50.07069 | 8.69001 | 1529 ft | 165 kts | 248° |
| 2026-04-15 16:29 | 50.06664 | 8.67458 | 1354 ft | 143 kts | 250° |
| 2026-04-15 16:29 | 50.06536 | 8.66063 | 1288 ft | 123 kts | 271° |
| 2026-04-15 16:29 | 50.06586 | 8.64631 | 1234 ft | 146 kts | 273° |
| 2026-04-15 16:29 | 50.06598 | 8.63015 | 1173 ft | 150 kts | 268° |
| 2026-04-15 16:30 | 50.06523 | 8.61406 | 1065 ft | 150 kts | 260° |
| 2026-04-15 16:30 | 50.06185 | 8.59865 | 988 ft | 152 kts | 247° |
| 2026-04-15 16:30 | 50.05794 | 8.58361 | 869 ft | 149 kts | 250° |
| 2026-04-15 16:30 | 50.05440 | 8.56842 | 698 ft | 148 kts | 250° |
| 2026-04-15 16:31 | 50.05079 | 8.55372 | 578 ft | 146 kts | 249° |
| 2026-04-15 16:31 | 50.04725 | 8.53898 | 471 ft | 143 kts | 250° |
| 2026-04-15 16:31 | 50.04386 | 8.52494 | 340 ft | 131 kts | 249° |
| 2026-04-15 16:31 | 50.04135 | 8.51451 | 328 ft | 74 kts | 249° |
| 2026-04-15 16:32 | 50.03953 | 8.50983 | 323 ft | 33 kts | 221° |
| 2026-04-15 16:32 | 50.03892 | 8.50896 | 321 ft | 2 kts | 220° |
| 2026-04-15 16:32 | 50.03885 | 8.50888 | 320 ft | 1 kts | 220° |
| 2026-04-15 16:32 | 50.03869 | 8.50867 | 319 ft | 5 kts | 219° |
| 2026-04-15 16:33 | 50.03826 | 8.50841 | 321 ft | 8 kts | 184° |
| 2026-04-15 16:33 | 50.03786 | 8.50873 | 322 ft | 5 kts | 144° |
| 2026-04-15 16:33 | 50.03758 | 8.50921 | 324 ft | 7 kts | 123° |